createdAt,value
2022-12-26T00:01:39.704Z,9.54
2022-12-26T00:04:07.128Z,9.41
2022-12-26T00:06:53.241Z,9.53
2022-12-26T00:09:19.629Z,9.47
2022-12-26T00:11:46.066Z,9.46
2022-12-26T00:14:14.407Z,9.55
2022-12-26T00:16:42.366Z,9.51
2022-12-26T00:19:08.973Z,9.57
2022-12-26T00:21:35.583Z,9.53
2022-12-26T00:24:02.250Z,9.50
2022-12-26T00:26:30.609Z,9.52
2022-12-26T00:28:57.365Z,9.57
2022-12-26T00:31:26.123Z,9.47
2022-12-26T00:33:52.710Z,9.49
2022-12-26T00:36:25.067Z,9.61
2022-12-26T00:38:51.658Z,9.60
2022-12-26T00:41:19.009Z,9.63
2022-12-26T00:43:45.436Z,9.67
2022-12-26T00:46:11.811Z,9.75
2022-12-26T00:48:38.264Z,9.84
2022-12-26T00:51:05.090Z,9.87
2022-12-26T00:53:31.721Z,9.82
2022-12-26T00:55:58.189Z,9.83
2022-12-26T00:58:24.758Z,9.98
2022-12-26T01:00:51.227Z,9.84
2022-12-26T01:03:18.094Z,9.96
2022-12-26T01:05:47.103Z,9.93
2022-12-26T01:08:23.073Z,9.87
2022-12-26T01:10:51.082Z,9.85
2022-12-26T01:13:17.435Z,10.08
2022-12-26T01:15:49.212Z,10.07
2022-12-26T01:18:15.818Z,10.17
2022-12-26T01:20:42.269Z,10.14
2022-12-26T01:23:08.597Z,10.13
2022-12-26T01:25:34.983Z,10.18
2022-12-26T01:28:01.393Z,10.15
2022-12-26T01:30:27.854Z,10.24
2022-12-26T01:32:54.285Z,10.13
2022-12-26T01:35:20.668Z,10.35
2022-12-26T01:37:47.017Z,10.16
2022-12-26T01:40:13.462Z,10.26
2022-12-26T01:42:41.300Z,10.31
2022-12-26T01:45:26.401Z,10.24
2022-12-26T01:48:14.068Z,10.26
2022-12-26T01:50:45.072Z,10.21
2022-12-26T01:53:32.607Z,10.29
2022-12-26T01:56:05.343Z,10.39
2022-12-26T01:58:34.004Z,10.27
2022-12-26T02:01:02.676Z,10.24
2022-12-26T02:03:47.749Z,10.31
2022-12-26T02:06:14.968Z,10.33
2022-12-26T02:08:41.844Z,10.28
2022-12-26T02:11:11.976Z,10.23
2022-12-26T02:13:39.106Z,10.29
2022-12-26T02:16:07.481Z,10.27
2022-12-26T02:18:33.955Z,10.29
2022-12-26T02:21:15.161Z,10.27
2022-12-26T02:24:19.123Z,10.28
2022-12-26T02:27:11.186Z,10.29
2022-12-26T02:29:57.913Z,10.24
2022-12-26T02:32:42.540Z,10.25
2022-12-26T02:35:22.373Z,10.19
2022-12-26T02:38:08.276Z,10.24
2022-12-26T02:40:46.323Z,10.17
2022-12-26T02:43:41.754Z,10.09
2022-12-26T02:46:40.032Z,10.10
2022-12-26T02:49:31.876Z,10.11
2022-12-26T02:52:23.954Z,10.09
2022-12-26T02:55:31.409Z,10.05
2022-12-26T02:58:36.976Z,10.10
2022-12-26T03:01:25.226Z,10.05
2022-12-26T03:04:13.219Z,10.01
2022-12-26T03:07:00.267Z,10.12
2022-12-26T03:09:48.408Z,10.08
2022-12-26T03:12:36.684Z,9.97
2022-12-26T03:15:05.941Z,9.98
2022-12-26T03:17:48.820Z,9.96
2022-12-26T03:20:24.573Z,9.91
2022-12-26T03:23:00.214Z,9.90
2022-12-26T03:25:54.372Z,9.86
2022-12-26T03:28:22.039Z,9.89
2022-12-26T03:30:52.167Z,9.86
2022-12-26T03:33:48.071Z,9.83
2022-12-26T03:36:48.683Z,9.73
2022-12-26T03:39:59.188Z,9.68
2022-12-26T03:42:57.171Z,9.67
2022-12-26T03:45:45.885Z,9.70
2022-12-26T03:48:49.519Z,9.66
2022-12-26T03:51:47.027Z,9.66
2022-12-26T03:54:35.660Z,9.58
2022-12-26T03:57:24.741Z,9.63
2022-12-26T04:00:12.597Z,9.57
2022-12-26T04:02:58.658Z,9.55
2022-12-26T04:05:43.737Z,9.56
2022-12-26T04:08:45.560Z,9.64
2022-12-26T04:11:35.088Z,9.71
2022-12-26T04:15:20.183Z,9.62
2022-12-26T04:18:16.831Z,9.62
2022-12-26T04:21:06.395Z,9.50
2022-12-26T04:24:03.219Z,9.43
2022-12-26T04:26:56.367Z,9.43
2022-12-26T04:29:41.700Z,9.46
2022-12-26T04:32:32.845Z,9.40
2022-12-26T04:35:31.336Z,9.34
2022-12-26T04:38:17.385Z,9.31
2022-12-26T04:41:05.725Z,9.40
2022-12-26T04:43:52.103Z,9.48
2022-12-26T04:46:20.957Z,9.64
2022-12-26T04:49:07.445Z,9.74
2022-12-26T04:51:34.355Z,9.73
2022-12-26T04:54:00.784Z,9.83
2022-12-26T04:56:27.202Z,9.74
2022-12-26T04:58:53.543Z,9.71
2022-12-26T05:01:38.345Z,9.87
2022-12-26T05:04:43.232Z,9.84
2022-12-26T05:07:38.493Z,9.82
2022-12-26T05:10:06.345Z,9.73
2022-12-26T05:12:32.695Z,9.69
2022-12-26T05:14:59.070Z,9.88
2022-12-26T05:17:44.167Z,9.81
2022-12-26T05:20:30.517Z,9.85
2022-12-26T05:23:16.367Z,9.66
2022-12-26T05:26:02.392Z,9.65
2022-12-26T05:28:43.910Z,9.67
2022-12-26T05:31:16.162Z,9.80
2022-12-26T05:34:02.022Z,9.86
2022-12-26T05:36:31.900Z,9.78
2022-12-26T05:38:58.319Z,9.73
2022-12-26T05:41:24.760Z,9.77
2022-12-26T05:43:51.181Z,9.73
2022-12-26T05:46:17.612Z,9.76
2022-12-26T05:48:44.007Z,9.84
2022-12-26T05:51:10.627Z,9.83
2022-12-26T05:53:37.064Z,9.93
2022-12-26T05:56:08.419Z,9.93
2022-12-26T05:58:34.750Z,10.04
2022-12-26T06:01:20.253Z,10.19
2022-12-26T06:03:49.094Z,10.25
2022-12-26T06:06:16.516Z,10.18
2022-12-26T06:08:43.211Z,10.12
2022-12-26T06:11:14.357Z,10.27
2022-12-26T06:13:40.877Z,10.21
2022-12-26T06:16:09.404Z,10.39
2022-12-26T06:18:36.129Z,10.37
2022-12-26T06:21:13.866Z,10.29
2022-12-26T06:23:40.535Z,10.50
2022-12-26T06:26:08.917Z,10.36
2022-12-26T06:28:35.978Z,10.57
2022-12-26T06:31:07.489Z,10.51
2022-12-26T06:33:33.969Z,10.59
2022-12-26T06:36:05.018Z,10.64
2022-12-26T06:38:31.390Z,10.55
2022-12-26T06:40:57.779Z,10.53
2022-12-26T06:43:24.091Z,10.37
2022-12-26T06:45:59.806Z,10.39
2022-12-26T06:48:26.582Z,10.30
2022-12-26T06:50:54.345Z,10.31
2022-12-26T06:53:21.986Z,10.24
2022-12-26T06:55:48.646Z,10.23
2022-12-26T06:58:15.265Z,10.22
2022-12-26T07:00:41.702Z,10.13
2022-12-26T07:03:08.183Z,10.08
2022-12-26T07:05:38.808Z,10.09
2022-12-26T07:08:05.276Z,10.03
2022-12-26T07:10:35.234Z,10.06
2022-12-26T07:13:01.557Z,10.05
2022-12-26T07:15:27.888Z,10.10
2022-12-26T07:17:54.233Z,10.10
2022-12-26T07:20:20.807Z,10.14
2022-12-26T07:22:47.183Z,10.13
2022-12-26T07:25:13.533Z,10.16
2022-12-26T07:27:39.910Z,10.13
2022-12-26T07:30:06.917Z,10.07
2022-12-26T07:32:33.281Z,10.12
2022-12-26T07:34:59.639Z,9.94
2022-12-26T07:37:26.010Z,9.91
2022-12-26T07:39:58.584Z,9.85
2022-12-26T07:42:25.374Z,9.75
2022-12-26T07:44:51.755Z,9.72
2022-12-26T07:47:18.208Z,9.69
2022-12-26T07:49:44.535Z,9.80
2022-12-26T07:52:10.899Z,9.67
2022-12-26T07:54:37.243Z,9.61
2022-12-26T07:57:30.276Z,9.65
2022-12-26T07:59:53.272Z,9.63
2022-12-26T08:02:20.309Z,9.53
2022-12-26T08:04:46.893Z,9.52
2022-12-26T08:07:13.404Z,9.52
2022-12-26T08:09:42.689Z,9.51
2022-12-26T08:12:09.303Z,9.51
2022-12-26T08:14:37.243Z,9.45
2022-12-26T08:17:03.765Z,9.46
2022-12-26T08:19:30.271Z,9.45
2022-12-26T08:21:56.653Z,9.48
2022-12-26T08:24:23.080Z,9.46
2022-12-26T08:26:49.485Z,9.40
2022-12-26T08:29:15.809Z,9.36
2022-12-26T08:31:42.279Z,9.36
2022-12-26T08:34:08.672Z,9.37
2022-12-26T08:36:35.009Z,9.43
2022-12-26T08:39:01.357Z,9.35
2022-12-26T08:41:27.685Z,9.42
2022-12-26T08:46:40.364Z,9.33
2022-12-26T08:49:06.733Z,9.41
2022-12-26T08:51:33.134Z,9.45
2022-12-26T08:53:59.526Z,9.45
2022-12-26T08:56:26.537Z,9.43
2022-12-26T08:58:53.422Z,9.45
2022-12-26T09:01:22.122Z,9.53
2022-12-26T09:03:52.645Z,9.46
2022-12-26T09:06:19.043Z,9.52
2022-12-26T09:08:45.428Z,9.53
2022-12-26T09:11:14.160Z,9.53
2022-12-26T09:13:41.842Z,9.59
2022-12-26T09:16:13.942Z,9.55
2022-12-26T09:18:40.990Z,9.63
2022-12-26T09:21:09.038Z,9.62
2022-12-26T09:23:36.006Z,9.65
2022-12-26T09:26:14.305Z,9.58
2022-12-26T09:28:41.417Z,9.64
2022-12-26T09:31:11.870Z,9.71
2022-12-26T09:33:38.674Z,9.74
2022-12-26T09:36:25.645Z,9.76
2022-12-26T09:38:52.254Z,9.74
2022-12-26T09:41:37.397Z,9.75
2022-12-26T09:44:15.615Z,9.73
2022-12-26T09:47:00.230Z,9.66
2022-12-26T09:49:33.104Z,9.73
2022-12-26T09:52:02.299Z,9.75
2022-12-26T09:54:39.338Z,9.71
2022-12-26T09:57:31.633Z,9.76
2022-12-26T10:00:05.015Z,9.74
2022-12-26T10:02:31.682Z,9.79
2022-12-26T10:04:58.601Z,9.81
2022-12-26T10:07:37.944Z,9.86
2022-12-26T10:10:13.452Z,9.83
2022-12-26T10:12:49.017Z,9.87
2022-12-26T10:15:35.112Z,9.92
2022-12-26T10:18:20.178Z,9.95
2022-12-26T10:20:58.297Z,9.92
2022-12-26T10:23:45.343Z,9.98
2022-12-26T10:26:24.919Z,9.95
2022-12-26T10:29:00.140Z,9.98
2022-12-26T10:31:42.487Z,10.04
2022-12-26T10:34:19.433Z,10.02
2022-12-26T10:36:51.679Z,10.12
2022-12-26T10:39:23.195Z,10.08
2022-12-26T10:41:53.513Z,10.09
2022-12-26T10:44:25.611Z,10.18
2022-12-26T10:46:59.540Z,10.21
2022-12-26T10:49:26.715Z,10.23
2022-12-26T10:51:55.521Z,10.21
2022-12-26T10:54:22.273Z,10.25
2022-12-26T10:56:51.042Z,10.22
2022-12-26T10:59:35.411Z,10.29
2022-12-26T11:02:13.659Z,10.36
2022-12-26T11:05:13.611Z,10.30
2022-12-26T11:07:52.077Z,10.36
2022-12-26T11:10:22.072Z,10.37
2022-12-26T11:12:51.853Z,10.43
2022-12-26T11:15:41.443Z,10.37
2022-12-26T11:18:27.469Z,10.48
2022-12-26T11:20:53.831Z,10.48
2022-12-26T11:23:28.029Z,10.49
2022-12-26T11:25:58.238Z,10.50
2022-12-26T11:28:34.185Z,10.54
2022-12-26T11:31:03.354Z,10.57
2022-12-26T11:33:32.918Z,10.61
2022-12-26T11:36:11.261Z,10.62
2022-12-26T11:38:52.644Z,10.60
2022-12-26T11:41:43.973Z,10.59
2022-12-26T11:44:10.249Z,10.56
2022-12-26T11:46:57.963Z,10.58
2022-12-26T11:49:29.862Z,10.54
2022-12-26T11:51:59.814Z,10.57
2022-12-26T11:54:29.805Z,10.63
2022-12-26T11:57:22.288Z,10.59
2022-12-26T11:59:49.786Z,10.64
2022-12-26T12:02:26.698Z,10.61
2022-12-26T12:04:55.879Z,10.68
2022-12-26T12:07:29.894Z,10.69
2022-12-26T12:10:20.725Z,10.71
2022-12-26T12:12:52.904Z,10.70
2022-12-26T12:15:29.835Z,10.64
2022-12-26T12:18:11.429Z,10.66
2022-12-26T12:21:05.623Z,10.64
2022-12-26T12:23:53.971Z,10.67
2022-12-26T12:26:32.465Z,10.63
2022-12-26T12:29:12.895Z,10.69
2022-12-26T12:31:56.476Z,10.67
2022-12-26T12:34:56.357Z,10.62
2022-12-26T12:37:42.044Z,10.71
2022-12-26T12:40:44.893Z,10.69
2022-12-26T12:43:17.090Z,10.67
2022-12-26T12:45:59.026Z,10.69
2022-12-26T12:48:52.548Z,10.62
2022-12-26T12:51:47.600Z,10.71
2022-12-26T12:54:32.499Z,10.73
2022-12-26T12:57:01.430Z,10.77
2022-12-26T12:59:43.635Z,10.74
2022-12-26T13:02:20.746Z,10.76
2022-12-26T13:04:51.988Z,10.76
2022-12-26T13:07:22.761Z,10.81
2022-12-26T13:09:58.606Z,10.83
2022-12-26T13:12:34.777Z,10.86
2022-12-26T13:15:23.251Z,10.91
2022-12-26T13:17:56.469Z,10.90
2022-12-26T13:20:29.993Z,10.95
2022-12-26T13:23:19.913Z,10.97
2022-12-26T13:25:49.351Z,10.96
2022-12-26T13:28:19.081Z,10.98
2022-12-26T13:30:45.580Z,10.96
2022-12-26T13:33:14.526Z,10.95
2022-12-26T13:35:52.493Z,10.97
2022-12-26T13:38:20.273Z,10.89
2022-12-26T13:40:51.578Z,10.89
2022-12-26T13:43:41.871Z,10.80
2022-12-26T13:46:42.100Z,10.63
2022-12-26T13:49:36.975Z,10.54
2022-12-26T13:52:12.403Z,10.37
2022-12-26T13:54:47.882Z,10.32
2022-12-26T13:57:32.964Z,10.10
2022-12-26T14:00:04.075Z,9.83
2022-12-26T14:03:17.503Z,9.56
2022-12-26T14:06:11.497Z,9.58
2022-12-26T14:08:54.584Z,9.33
2022-12-26T14:11:38.968Z,9.38
2022-12-26T14:14:40.782Z,9.32
2022-12-26T14:17:37.401Z,9.26
2022-12-26T14:20:15.457Z,9.43
2022-12-26T14:23:03.633Z,9.46
2022-12-26T14:25:36.612Z,9.48
2022-12-26T14:28:17.224Z,9.72
2022-12-26T14:30:52.771Z,9.64
2022-12-26T14:33:40.650Z,9.60
2022-12-26T14:36:32.484Z,9.47
2022-12-26T14:39:23.021Z,9.44
2022-12-26T14:42:26.219Z,9.49
2022-12-26T14:44:57.327Z,9.43
2022-12-26T14:47:40.067Z,9.55
2022-12-26T14:50:42.481Z,9.61
2022-12-26T14:53:30.065Z,9.47
2022-12-26T14:56:33.164Z,9.47
2022-12-26T14:59:24.655Z,9.53
2022-12-26T15:02:01.565Z,9.49
2022-12-26T15:04:44.514Z,9.46
2022-12-26T15:07:43.128Z,9.42
2022-12-26T15:10:29.484Z,9.46
2022-12-26T15:13:14.601Z,9.50
2022-12-26T15:15:41.194Z,9.40
2022-12-26T15:18:26.080Z,9.43
2022-12-26T15:21:21.438Z,9.36
2022-12-26T15:24:06.905Z,9.34
2022-12-26T15:26:53.301Z,9.21
2022-12-26T15:29:35.677Z,9.11
2022-12-26T15:32:27.538Z,9.06
2022-12-26T15:35:15.372Z,8.96
2022-12-26T15:38:04.157Z,8.83
2022-12-26T15:40:35.479Z,8.98
2022-12-26T15:43:20.253Z,8.75
2022-12-26T15:46:15.819Z,8.77
2022-12-26T15:48:57.294Z,8.67
2022-12-26T15:51:29.732Z,8.67
2022-12-26T15:54:02.031Z,8.60
2022-12-26T15:56:50.178Z,8.63
2022-12-26T15:59:31.825Z,8.52
2022-12-26T16:01:58.669Z,8.57
2022-12-26T16:04:30.227Z,8.65
2022-12-26T16:07:25.578Z,8.56
2022-12-26T16:09:54.659Z,8.61
2022-12-26T16:12:34.223Z,8.66
2022-12-26T16:15:09.732Z,8.61
2022-12-26T16:17:40.314Z,8.59
2022-12-26T16:21:00.486Z,8.51
2022-12-26T16:23:29.083Z,8.51
2022-12-26T16:25:56.951Z,8.44
2022-12-26T16:28:26.085Z,8.42
2022-12-26T16:30:52.662Z,8.39
2022-12-26T16:33:19.533Z,8.38
2022-12-26T16:35:46.189Z,8.31
2022-12-26T16:38:18.204Z,8.29
2022-12-26T16:40:49.361Z,8.17
2022-12-26T16:43:18.685Z,8.15
2022-12-26T16:45:46.957Z,8.09
2022-12-26T16:48:15.950Z,8.09
2022-12-26T16:50:48.555Z,8.00
2022-12-26T16:53:17.698Z,8.04
2022-12-26T16:56:13.337Z,8.08
2022-12-26T16:58:39.855Z,8.04
2022-12-26T17:01:07.587Z,8.00
2022-12-26T17:03:59.388Z,7.95
2022-12-26T17:06:32.241Z,7.93
2022-12-26T17:09:07.518Z,8.00
2022-12-26T17:11:36.282Z,7.91
2022-12-26T17:14:04.364Z,7.94
2022-12-26T17:16:31.818Z,7.92
2022-12-26T17:19:18.160Z,7.85
2022-12-26T17:22:23.264Z,7.78
2022-12-26T17:24:51.017Z,7.73
2022-12-26T17:27:23.344Z,7.71
2022-12-26T17:30:20.101Z,7.68
2022-12-26T17:32:47.343Z,7.63
2022-12-26T17:35:17.677Z,7.62
2022-12-26T17:37:44.853Z,7.68
2022-12-26T17:40:14.062Z,7.57
2022-12-26T17:42:45.138Z,7.55
2022-12-26T17:45:22.962Z,7.56
2022-12-26T17:47:56.970Z,7.63
2022-12-26T17:50:25.234Z,7.55
2022-12-26T17:52:51.747Z,7.50
2022-12-26T17:55:24.836Z,7.48
2022-12-26T17:57:51.522Z,7.45
2022-12-26T18:00:23.361Z,7.44
2022-12-26T18:02:50.138Z,7.38
2022-12-26T18:05:18.505Z,7.36
2022-12-26T18:07:46.337Z,7.45
2022-12-26T18:10:18.526Z,7.35
2022-12-26T18:12:45.121Z,7.36
2022-12-26T18:15:12.921Z,7.35
2022-12-26T18:17:40.436Z,7.32
2022-12-26T18:20:08.413Z,7.25
2022-12-26T18:22:34.671Z,7.28
2022-12-26T18:25:01.004Z,7.25
2022-12-26T18:27:32.130Z,7.19
2022-12-26T18:29:58.795Z,7.26
2022-12-26T18:32:30.830Z,7.25
2022-12-26T18:34:57.666Z,7.25
2022-12-26T18:37:26.248Z,7.25
2022-12-26T18:39:52.720Z,7.21
2022-12-26T18:42:19.324Z,7.22
2022-12-26T18:44:45.811Z,7.17
2022-12-26T18:47:13.730Z,7.16
2022-12-26T18:49:40.673Z,7.14
2022-12-26T18:52:07.779Z,7.15
2022-12-26T18:54:36.114Z,7.11
2022-12-26T18:57:07.468Z,7.03
2022-12-26T18:59:34.092Z,7.06
2022-12-26T19:02:00.749Z,7.03
2022-12-26T19:04:27.225Z,7.19
2022-12-26T19:06:53.612Z,7.13
2022-12-26T19:09:20.142Z,7.09
2022-12-26T19:11:46.663Z,7.07
2022-12-26T19:14:21.393Z,7.04
2022-12-26T19:16:47.855Z,6.97
2022-12-26T19:19:14.303Z,6.82
2022-12-26T19:21:40.662Z,6.78
2022-12-26T19:24:07.273Z,6.72
2022-12-26T19:26:33.661Z,6.82
2022-12-26T19:28:59.985Z,6.77
2022-12-26T19:31:26.544Z,6.72
2022-12-26T19:33:52.917Z,6.67
2022-12-26T19:36:19.312Z,6.59
2022-12-26T19:38:45.727Z,6.61
2022-12-26T19:41:13.832Z,6.44
2022-12-26T19:43:40.468Z,6.50
2022-12-26T19:46:09.224Z,6.53
2022-12-26T19:48:36.613Z,6.59
2022-12-26T19:51:05.537Z,6.46
2022-12-26T19:53:32.040Z,6.45
2022-12-26T19:55:58.430Z,6.48
2022-12-26T19:58:25.034Z,6.42
2022-12-26T20:00:51.464Z,6.42
2022-12-26T20:03:17.950Z,6.43
2022-12-26T20:05:44.561Z,6.37
2022-12-26T20:08:11.312Z,6.37
2022-12-26T20:10:37.657Z,6.33
2022-12-26T20:13:04.058Z,6.54
2022-12-26T20:15:32.538Z,6.42
2022-12-26T20:17:58.995Z,6.46
2022-12-26T20:20:25.381Z,6.36
2022-12-26T20:22:53.365Z,6.40
2022-12-26T20:25:19.836Z,6.11
2022-12-26T20:27:46.230Z,6.29
2022-12-26T20:30:12.802Z,6.15
2022-12-26T20:32:43.935Z,6.00
2022-12-26T20:35:10.365Z,5.88
2022-12-26T20:37:36.744Z,5.87
2022-12-26T20:40:03.274Z,5.83
2022-12-26T20:42:29.746Z,5.80
2022-12-26T20:44:56.116Z,5.80
2022-12-26T20:47:22.463Z,5.78
2022-12-26T20:49:48.917Z,5.69
2022-12-26T20:52:18.366Z,5.61
2022-12-26T20:54:44.733Z,5.65
2022-12-26T20:57:11.070Z,5.84
2022-12-26T20:59:37.408Z,5.72
2022-12-26T21:02:04.023Z,5.71
2022-12-26T21:04:30.837Z,5.53
2022-12-26T21:06:57.450Z,5.48
2022-12-26T21:09:24.008Z,5.41
2022-12-26T21:11:50.472Z,5.58
2022-12-26T21:14:20.614Z,5.30
2022-12-26T21:16:55.470Z,5.35
2022-12-26T21:19:23.143Z,5.35
2022-12-26T21:21:51.900Z,5.19
2022-12-26T21:24:21.396Z,5.09
2022-12-26T21:26:48.389Z,4.98
2022-12-26T21:29:20.338Z,5.07
2022-12-26T21:31:47.253Z,5.12
2022-12-26T21:34:15.628Z,4.98
2022-12-26T21:37:02.165Z,5.05
2022-12-26T21:39:28.705Z,4.90
2022-12-26T21:41:55.106Z,4.81
2022-12-26T21:44:21.515Z,4.73
2022-12-26T21:46:47.871Z,4.59
2022-12-26T21:49:14.262Z,4.57
2022-12-26T21:51:40.605Z,4.53
2022-12-26T21:54:25.794Z,4.50
2022-12-26T21:56:52.176Z,4.50
2022-12-26T21:59:36.903Z,4.37
2022-12-26T22:02:03.452Z,4.45
2022-12-26T22:04:30.006Z,4.51
2022-12-26T22:06:56.537Z,4.45
2022-12-26T22:09:22.929Z,4.48
2022-12-26T22:12:07.884Z,4.46
2022-12-26T22:14:34.233Z,4.51
2022-12-26T22:17:00.587Z,4.34
2022-12-26T22:19:27.018Z,4.25
2022-12-26T22:21:54.705Z,4.23
2022-12-26T22:24:27.277Z,4.22
2022-12-26T22:26:53.658Z,4.22
2022-12-26T22:29:20.029Z,4.21
2022-12-26T22:31:46.467Z,4.26
2022-12-26T22:34:14.425Z,4.17
2022-12-26T22:36:41.416Z,4.26
2022-12-26T22:39:08.034Z,4.13
2022-12-26T22:41:34.528Z,4.10
2022-12-26T22:44:00.923Z,4.02
2022-12-26T22:46:27.424Z,3.92
2022-12-26T22:48:53.949Z,3.91
2022-12-26T22:51:22.918Z,3.91
2022-12-26T22:53:49.915Z,3.86
2022-12-26T22:56:16.304Z,3.80
2022-12-26T22:58:43.023Z,3.76
2022-12-26T23:01:14.254Z,3.78
2022-12-26T23:03:40.987Z,3.67
2022-12-26T23:06:18.959Z,3.63
2022-12-26T23:08:45.484Z,3.59
2022-12-26T23:11:12.118Z,3.56
2022-12-26T23:13:38.683Z,3.42
2022-12-26T23:16:11.407Z,3.45
2022-12-26T23:19:06.114Z,3.45
2022-12-26T23:21:41.729Z,3.46
2022-12-26T23:24:16.107Z,3.51
2022-12-26T23:26:45.192Z,3.41
2022-12-26T23:29:32.539Z,3.35
2022-12-26T23:31:58.856Z,3.30
2022-12-26T23:34:25.773Z,3.21
2022-12-26T23:36:52.119Z,3.16
2022-12-26T23:39:18.509Z,3.04
2022-12-26T23:41:45.040Z,3.07
2022-12-26T23:44:11.430Z,3.07
2022-12-26T23:46:39.543Z,3.05
2022-12-26T23:49:05.829Z,3.03
2022-12-26T23:51:32.176Z,3.03
2022-12-26T23:53:58.572Z,3.00
2022-12-26T23:56:27.565Z,3.03
2022-12-26T23:58:54.864Z,2.93
